createdAt,value
2023-07-22T00:04:31.308Z,85.92
2023-07-22T00:14:54.290Z,86.51
2023-07-22T00:25:15.751Z,86.12
2023-07-22T00:35:37.710Z,86.03
2023-07-22T00:45:59.358Z,85.22
2023-07-22T00:56:21.095Z,87.01
2023-07-22T01:06:43.910Z,86.44
2023-07-22T01:17:06.328Z,86.38
2023-07-22T01:27:28.036Z,87.08
2023-07-22T01:37:49.519Z,87.31
2023-07-22T01:48:11.051Z,87.32
2023-07-22T01:58:32.685Z,89.85
2023-07-22T02:08:54.303Z,88.21
2023-07-22T02:19:16.564Z,90.98
2023-07-22T02:29:37.994Z,90.12
2023-07-22T02:39:59.499Z,89.69
2023-07-22T02:50:20.988Z,89.87
2023-07-22T03:00:43.366Z,90.40
2023-07-22T03:11:04.916Z,90.57
2023-07-22T03:21:26.389Z,91.67
2023-07-22T03:31:47.935Z,90.37
2023-07-22T03:42:09.897Z,92.68
2023-07-22T03:52:31.423Z,92.56
2023-07-22T04:02:53.798Z,92.59
2023-07-22T04:13:15.314Z,91.72
2023-07-22T04:23:36.785Z,91.96
2023-07-22T04:33:58.648Z,91.83
2023-07-22T04:44:20.424Z,91.77
2023-07-22T04:54:42.576Z,92.81
2023-07-22T05:05:04.307Z,88.95
2023-07-22T05:15:26.161Z,91.66
2023-07-22T05:25:54.519Z,89.91
2023-07-22T05:36:15.976Z,87.24
2023-07-22T05:46:38.277Z,87.31
2023-07-22T05:56:59.786Z,86.72
2023-07-22T06:07:21.263Z,85.65
2023-07-22T06:17:42.753Z,86.34
2023-07-22T06:28:04.302Z,87.33
2023-07-22T06:38:25.744Z,84.70
2023-07-22T06:48:48.347Z,84.55
2023-07-22T06:59:09.907Z,84.07
2023-07-22T07:09:31.384Z,85.78
2023-07-22T07:19:52.834Z,82.42
2023-07-22T07:30:14.420Z,82.34
2023-07-22T07:40:35.867Z,81.28
2023-07-22T07:50:57.280Z,78.90
2023-07-22T08:01:18.807Z,78.46
2023-07-22T08:11:40.355Z,77.93
2023-07-22T08:22:02.041Z,78.01
2023-07-22T08:32:23.562Z,78.92
2023-07-22T08:42:46.644Z,77.09
2023-07-22T08:53:08.824Z,76.81
2023-07-22T09:03:30.358Z,76.90
2023-07-22T09:13:52.709Z,77.13
2023-07-22T09:24:21.432Z,75.98
2023-07-22T09:34:56.577Z,75.03
2023-07-22T09:45:19.208Z,74.63
2023-07-22T09:55:40.645Z,73.77
2023-07-22T10:06:05.111Z,73.29
2023-07-22T10:16:26.872Z,74.56
2023-07-22T10:26:52.460Z,71.92
2023-07-22T10:37:14.299Z,72.56
2023-07-22T10:47:37.829Z,73.26
2023-07-22T10:58:05.148Z,72.88
2023-07-22T11:08:40.201Z,71.38
2023-07-22T11:19:01.702Z,71.93
2023-07-22T11:29:23.168Z,73.92
2023-07-22T11:39:45.520Z,75.99
2023-07-22T11:50:07.287Z,78.41
2023-07-22T12:00:28.693Z,83.56
2023-07-22T12:10:59.679Z,85.26
2023-07-22T12:21:21.137Z,90.42
2023-07-22T12:31:42.621Z,92.11
2023-07-22T12:42:04.137Z,93.98
2023-07-22T12:52:25.850Z,93.03
2023-07-22T13:02:47.326Z,94.59
2023-07-22T13:13:08.756Z,91.79
2023-07-22T13:23:30.215Z,94.01
2023-07-22T13:33:51.779Z,94.98
2023-07-22T13:44:13.200Z,93.71
2023-07-22T13:54:35.201Z,92.44
2023-07-22T14:04:56.638Z,97.58
2023-07-22T14:15:18.044Z,97.52
2023-07-22T14:25:39.487Z,96.15
2023-07-22T14:36:00.919Z,94.77
2023-07-22T14:46:22.485Z,96.16
2023-07-22T14:56:44.054Z,97.96
2023-07-22T15:07:06.182Z,95.26
2023-07-22T15:17:28.212Z,96.77
2023-07-22T15:27:49.822Z,96.31
2023-07-22T15:38:11.318Z,95.27
2023-07-22T15:48:32.807Z,98.51
2023-07-22T15:58:54.356Z,97.18
2023-07-22T16:09:16.609Z,99.45
2023-07-22T16:19:38.083Z,97.93
2023-07-22T16:29:59.563Z,98.21
2023-07-22T16:40:21.020Z,99.54
2023-07-22T16:50:42.480Z,98.64
2023-07-22T17:01:04.034Z,98.63
2023-07-22T17:11:26.674Z,97.30
2023-07-22T17:21:48.542Z,100.00
2023-07-22T17:32:10.003Z,100.00
2023-07-22T17:42:31.460Z,100.00
2023-07-22T17:52:52.907Z,100.00
2023-07-22T18:03:14.509Z,100.00
2023-07-22T18:13:36.170Z,100.00
2023-07-22T18:23:57.681Z,100.00
2023-07-22T18:34:22.651Z,100.00
2023-07-22T18:44:44.246Z,100.00
2023-07-22T18:55:05.946Z,100.00
2023-07-22T19:05:27.441Z,100.00
2023-07-22T19:15:51.937Z,100.00
2023-07-22T19:26:13.425Z,100.00
2023-07-22T19:36:34.913Z,100.00
2023-07-22T19:46:56.361Z,100.00
2023-07-22T19:57:17.899Z,100.00
2023-07-22T20:07:39.305Z,100.00
2023-07-22T20:18:00.911Z,100.00
2023-07-22T20:28:22.702Z,100.00
2023-07-22T20:38:44.209Z,100.00
2023-07-22T20:49:05.641Z,100.00
2023-07-22T20:59:27.058Z,100.00
2023-07-22T21:09:48.544Z,100.00
2023-07-22T21:20:10.252Z,100.00
2023-07-22T21:30:31.676Z,100.00
2023-07-22T21:40:54.013Z,100.00
2023-07-22T21:51:16.095Z,100.00
2023-07-22T22:01:37.640Z,100.00
2023-07-22T22:11:59.137Z,100.00
2023-07-22T22:22:20.739Z,100.00
2023-07-22T22:32:42.348Z,100.00
2023-07-22T22:43:04.046Z,100.00
2023-07-22T22:53:25.703Z,100.00
2023-07-22T23:03:47.189Z,100.00
2023-07-22T23:14:08.629Z,100.00
2023-07-22T23:24:30.177Z,100.00
2023-07-22T23:34:52.651Z,100.00
2023-07-22T23:45:14.118Z,100.00
2023-07-22T23:55:35.554Z,100.00
